Willow Wells

2021-01-22 03:00:00

  • imperial
Date Time Air Temperature Relative Humidity Wind Speed Wind Dir. Precipitation Solar Radiation Soil Temperature Soil Temperature Soil Temperature Soil Temperature Soil Temperature
5cm 10cm 20cm 50cm 100cm
US/Mountain F % MPH deg in MJ/m^2 F F F F F
max min avg max min max avg avg
2021-01-21 06:00:00 -147.8 -147.8 -147.8 -99.9 -99.9 7.4 4.0 282.0 -99.90 0.0006120 41.0 41.2 42.3 43.9 46.6
2021-01-21 07:00:00 -147.8 -147.8 -147.8 -99.9 -99.9 3.2 0.8 234.0 -99.90 0.0018720 40.1 40.5 42.3 43.9 46.6
2021-01-21 08:00:00 -147.8 -147.8 -147.8 -99.9 -99.9 5.0 1.8 294.0 -99.90 0.0887760 39.7 40.1 42.1 43.9 46.6
2021-01-21 09:00:00 -147.8 -147.8 -147.8 -99.9 -99.9 7.9 5.0 274.0 -99.90 0.2588400 40.5 40.5 41.9 43.9 46.6
2021-01-21 10:00:00 -147.8 -147.8 -147.8 -99.9 -99.9 12.7 5.5 294.0 -99.90 1.0213200 41.9 41.4 41.9 43.9 46.4
2021-01-21 11:00:00 -147.8 -147.8 -147.8 -99.9 -99.9 12.8 8.5 295.0 -99.90 1.9080000 47.3 45.9 41.9 43.9 46.4
2021-01-21 12:00:00 -147.8 -147.8 -147.8 -99.9 -99.9 12.1 7.7 272.0 -99.90 2.1308400 52.9 50.9 42.1 43.9 46.6
2021-01-21 13:00:00 -147.8 -147.8 -147.8 -99.9 -99.9 11.8 7.0 234.0 -99.90 1.5264000 55.8 54.1 42.6 43.9 46.6
2021-01-21 14:00:00 -147.8 -147.8 -147.8 -99.9 -99.9 13.4 8.5 245.0 -99.90 1.4641200 57.7 55.6 43.5 43.9 46.6
2021-01-21 15:00:00 -147.8 -147.8 -147.8 -99.9 -99.9 16.1 10.0 260.0 -99.90 0.7761600 57.6 56.1 44.4 43.9 46.6
2021-01-21 16:00:00 -147.8 -147.8 -147.8 -99.9 -99.9 14.1 8.3 252.0 -99.90 0.3852000 56.3 55.4 45.1 44.1 46.6
2021-01-21 17:00:00 -147.8 -147.8 -147.8 -99.9 -99.9 10.2 6.9 258.0 -99.90 0.2233800 55.0 54.5 45.9 44.1 46.6
2021-01-21 18:00:00 -147.8 -147.8 -147.8 -99.9 -99.9 12.0 3.7 255.0 -99.90 0.0079200 52.9 52.9 46.4 44.2 46.6
2021-01-21 19:00:00 -147.8 -147.8 -147.8 -99.9 -99.9 4.1 2.1 251.0 -99.90 0.0003600 50.7 51.1 46.6 44.4 46.6
2021-01-21 20:00:00 -147.8 -147.8 -147.8 -99.9 -99.9 7.0 3.8 293.0 -99.90 0.0005040 48.7 49.3 46.8 44.4 46.6
2021-01-21 21:00:00 -147.8 -147.8 -147.8 -99.9 -99.9 6.5 3.6 297.0 -99.90 0.0005040 47.1 47.8 46.6 44.6 46.6
2021-01-21 22:00:00 -147.8 -147.8 -147.8 -99.9 -99.9 4.6 3.0 295.0 -99.90 0.0006480 45.3 46.2 46.4 44.8 46.6
2021-01-21 23:00:00 -147.8 -147.8 -147.8 -99.9 -99.9 4.0 1.4 260.0 -99.90 0.0006480 43.7 44.8 46.0 44.8 46.6
2021-01-22 00:00:00 -147.8 -147.8 -147.8 -99.9 -99.9 9.6 4.5 273.0 -99.90 0.0007200 42.4 43.5 45.7 45.0 46.6
2021-01-22 01:00:00 -147.8 -147.8 -147.8 -99.9 -99.9 10.9 7.7 314.0 -99.90 0.0004680 42.1 42.8 45.3 45.0 46.6
2021-01-22 02:00:00 -147.8 -147.8 -147.8 -99.9 -99.9 10.6 7.6 318.0 -99.90 0.0005400 41.5 42.3 45.0 45.1 46.6
2021-01-22 03:00:00 -147.8 -147.8 -147.8 -99.9 -99.9 7.4 5.7 311.0 -99.90 0.0006480 40.8 41.7 44.6 45.1 46.6

Data is presented as is, with no certification of correctness. DO NOT USE IN LEGAL PROCEEDINGS.